Time;durP1;ratioP1;P1;durP2;ratioP2;P2;SDS_P1;SDS_P2;PMS_P1;PMS_P2;Temp;Humidity;BMP_temperature;BMP_pressure;BME280_temperature;BME280_humidity;BME280_pressure;Samples;Min_cycle;Max_cycle;Signal;HPM_P1;HPM_P2
2021/04/21 00:00:14;;;;;;;;;;;;;;;15.61;39.70;101038.28;4955005;28;97438;-82
2021/04/21 00:02:40;;;;;;;;;;;;;;;15.91;39.00;101039.34;4956611;28;98895;-83
2021/04/21 00:05:07;;;;;;;;;;;;;;;15.08;40.37;101039.16;4958375;28;97140;-83
2021/04/21 00:07:35;;;;;;;;;;;;;;;15.21;40.55;101028.75;4965388;28;98261;-82
2021/04/21 00:10:04;;;;;;;;;;;;;;;14.96;40.80;101035.31;4956546;28;99725;-82
2021/04/21 00:12:31;;;;;;;;;;;;;;;15.06;40.94;101022.41;4957547;28;98879;-82
2021/04/21 00:14:57;;;;;;;;;;;;;;;14.94;41.52;101028.31;4954571;28;97095;-82
2021/04/21 00:17:24;;;;;;;;;;;;;;;15.54;40.10;101033.28;4960367;28;97880;-82
2021/04/21 00:19:51;;;;;;;;;;;;;;;15.35;40.43;101026.28;4951030;28;101441;-81
2021/04/21 00:22:18;;;;;;;;;;;;;;;15.19;40.88;101025.31;4962371;28;99515;-82
2021/04/21 00:24:46;;;;;;;;;;;;;;;15.41;40.01;101029.47;4961797;28;96880;-81
2021/04/21 00:27:14;;;;;;;;;;;;;;;15.19;40.01;101027.97;4977652;28;96827;-82
2021/04/21 00:29:44;;;;;;;;;;;;;;;15.12;40.42;101028.28;4973434;28;97793;-82
2021/04/21 00:32:13;;;;;;;;;;;;;;;14.96;40.40;101034.44;4974422;28;98449;-82
2021/04/21 00:34:39;;;;;;;;;;;;;;;14.87;40.79;101030.44;4967346;28;96772;-82
2021/04/21 00:37:06;;;;;;;;;;;;;;;15.29;40.15;101027.44;4968631;28;96804;-83
2021/04/21 00:39:33;;;;;;;;;;;;;;;14.69;40.15;101037.50;4956646;28;98903;-82
2021/04/21 00:42:02;;;;;;;;;;;;;;;14.98;40.68;101035.22;4963137;28;100714;-82
2021/04/21 00:44:40;;;;;;;;;;;;;;;14.98;40.89;101027.22;4959810;28;96770;-83
2021/04/21 00:47:08;;;;;;;;;;;;;;;15.15;40.90;101021.94;4951537;28;97199;-83
2021/04/21 00:49:41;;;;;;;;;;;;;;;14.97;40.87;101029.03;4958117;28;98887;-83
2021/04/21 00:52:08;;;;;;;;;;;;;;;15.28;40.15;101028.38;4967141;28;98809;-83
2021/04/21 00:54:39;;;;;;;;;;;;;;;14.65;41.34;101030.59;4954030;28;97243;-83
2021/04/21 00:57:12;;;;;;;;;;;;;;;14.98;40.46;101030.75;4976556;28;96671;-82
2021/04/21 00:59:44;;;;;;;;;;;;;;;14.70;41.14;101028.56;4981454;28;98060;-82
2021/04/21 01:02:10;;;;;;;;;;;;;;;14.60;41.70;101027.28;4971955;28;96788;-81
2021/04/21 01:04:37;;;;;;;;;;;;;;;14.42;42.04;101024.66;4975980;28;96524;-83
2021/04/21 01:07:04;;;;;;;;;;;;;;;14.49;41.82;101018.97;4970518;28;96766;-83
2021/04/21 01:09:32;;;;;;;;;;;;;;;14.88;40.89;101021.50;4976174;28;98092;-82
2021/04/21 01:12:01;;;;;;;;;;;;;;;15.05;40.19;101018.00;4975578;28;97819;-83
2021/04/21 01:14:29;;;;;;;;;;;;;;;14.54;40.34;101014.28;4975183;28;97009;-83
2021/04/21 01:16:56;;;;;;;;;;;;;;;14.35;41.13;101021.38;4970892;28;96630;-83
2021/04/21 01:19:27;;;;;;;;;;;;;;;14.45;41.87;101021.81;4963574;28;100236;-83
2021/04/21 01:21:57;;;;;;;;;;;;;;;14.43;40.61;101021.91;4959929;28;97789;-81
2021/04/21 01:24:30;;;;;;;;;;;;;;;14.57;39.79;101016.78;4957338;28;98503;-82
2021/04/21 01:27:04;;;;;;;;;;;;;;;14.35;40.30;101024.03;4956591;28;98300;-81
2021/04/21 01:29:33;;;;;;;;;;;;;;;13.98;41.34;101021.34;4957496;28;99301;-81
2021/04/21 01:32:01;;;;;;;;;;;;;;;14.16;40.94;101025.81;4954785;28;98678;-84
2021/04/21 01:34:30;;;;;;;;;;;;;;;14.40;40.42;101029.16;4954783;28;96822;-82
2021/04/21 01:36:56;;;;;;;;;;;;;;;14.54;39.74;101021.41;4971828;28;98386;-82
2021/04/21 01:39:23;;;;;;;;;;;;;;;14.27;40.13;101023.53;4964157;28;100878;-82
2021/04/21 01:41:51;;;;;;;;;;;;;;;14.28;40.98;101031.44;4959829;28;99297;-82
2021/04/21 01:44:19;;;;;;;;;;;;;;;14.35;40.72;101030.22;4966697;28;96747;-82
2021/04/21 01:46:47;;;;;;;;;;;;;;;14.06;41.10;101030.69;4982654;28;96187;-82
2021/04/21 01:49:33;;;;;;;;;;;;;;;13.92;41.58;101033.09;4955729;28;101415;-83
2021/04/21 01:52:01;;;;;;;;;;;;;;;13.91;41.69;101032.22;4950041;28;98868;-83
2021/04/21 01:54:28;;;;;;;;;;;;;;;14.20;41.13;101033.56;4955055;28;97422;-83
2021/04/21 01:56:56;;;;;;;;;;;;;;;14.73;39.41;101031.09;4952189;28;99420;-83
2021/04/21 01:59:29;;;;;;;;;;;;;;;14.18;41.16;101030.09;4961335;28;99245;-83
2021/04/21 02:01:57;;;;;;;;;;;;;;;14.12;41.49;101025.06;4951574;28;98947;-81
2021/04/21 02:04:27;;;;;;;;;;;;;;;14.43;41.19;101021.91;4954984;28;96806;-82
2021/04/21 02:06:57;;;;;;;;;;;;;;;14.47;40.28;101022.63;4950498;28;96916;-82
2021/04/21 02:09:34;;;;;;;;;;;;;;;14.34;41.27;101030.28;4954036;28;99005;-81
2021/04/21 02:12:05;;;;;;;;;;;;;;;14.00;42.24;101024.78;4954034;28;99050;-82
2021/04/21 02:14:35;;;;;;;;;;;;;;;13.77;41.64;101021.38;4954253;28;97205;-82
2021/04/21 02:17:11;;;;;;;;;;;;;;;14.21;41.50;101018.50;4953293;28;96961;-82
2021/04/21 02:19:44;;;;;;;;;;;;;;;14.19;41.16;101015.03;4953415;28;98857;-81
2021/04/21 02:22:18;;;;;;;;;;;;;;;13.85;41.53;101013.91;4953462;28;98729;-81
2021/04/21 02:24:48;;;;;;;;;;;;;;;14.33;40.50;101018.78;4950803;28;98674;-81
2021/04/21 02:27:20;;;;;;;;;;;;;;;14.53;40.21;101014.34;4953758;28;96965;-81
2021/04/21 02:29:47;;;;;;;;;;;;;;;14.02;40.83;101012.28;4954999;28;99325;-82
2021/04/21 02:32:18;;;;;;;;;;;;;;;14.15;40.70;101018.78;4953373;28;98828;-83
2021/04/21 02:34:49;;;;;;;;;;;;;;;14.01;41.46;101008.78;4952413;28;97076;-83
2021/04/21 02:37:19;;;;;;;;;;;;;;;13.88;41.47;101015.56;4954845;28;97034;-83
2021/04/21 02:39:49;;;;;;;;;;;;;;;13.73;41.73;101011.78;4952710;28;99248;-83
2021/04/21 02:42:16;;;;;;;;;;;;;;;13.70;42.17;101009.28;4955715;28;99094;-83
2021/04/21 02:44:49;;;;;;;;;;;;;;;14.12;41.31;101019.75;4965783;28;97882;-83
2021/04/21 02:47:20;;;;;;;;;;;;;;;14.16;41.07;101009.88;4966659;28;96787;-83
2021/04/21 02:49:49;;;;;;;;;;;;;;;13.77;41.73;101013.41;4957206;28;100558;-83
2021/04/21 02:52:25;;;;;;;;;;;;;;;14.20;40.96;101006.13;4957328;28;98858;-83
2021/04/21 02:54:57;;;;;;;;;;;;;;;13.88;41.38;101013.78;4955721;28;97206;-83
2021/04/21 02:57:25;;;;;;;;;;;;;;;13.85;41.36;101013.91;4962163;28;96728;-82
2021/04/21 02:59:54;;;;;;;;;;;;;;;13.84;41.73;101020.16;4961115;28;98237;-83
2021/04/21 03:02:24;;;;;;;;;;;;;;;13.96;41.47;101018.75;4951310;28;97755;-82
2021/04/21 03:04:52;;;;;;;;;;;;;;;13.88;41.50;101016.44;4966970;28;96870;-82
2021/04/21 03:07:20;;;;;;;;;;;;;;;14.03;41.45;101019.34;4955552;28;96864;-81
2021/04/21 03:09:48;;;;;;;;;;;;;;;14.08;41.21;101020.84;4953909;28;99011;-83
2021/04/21 03:12:16;;;;;;;;;;;;;;;14.01;41.56;101016.75;4955067;28;98870;-83
2021/04/21 03:14:45;;;;;;;;;;;;;;;14.03;41.37;101012.22;4954725;28;96789;-82
2021/04/21 03:17:10;;;;;;;;;;;;;;;13.93;41.53;101014.44;4955150;28;98708;-83
2021/04/21 03:19:39;;;;;;;;;;;;;;;13.79;41.92;101008.88;4955170;28;98964;-82
2021/04/21 03:22:13;;;;;;;;;;;;;;;13.70;42.26;101017.25;4955326;28;98908;-81
2021/04/21 03:24:40;;;;;;;;;;;;;;;13.55;41.96;101013.47;4954717;28;97300;-81
2021/04/21 03:27:06;;;;;;;;;;;;;;;13.64;41.97;101011.34;4954411;28;97307;-81
2021/04/21 03:29:36;;;;;;;;;;;;;;;13.63;41.87;101009.63;4952074;28;98893;-81
2021/04/21 03:32:04;;;;;;;;;;;;;;;13.26;42.22;101015.66;4952767;28;98863;-81
2021/04/21 03:34:32;;;;;;;;;;;;;;;12.64;43.34;101003.16;4955293;28;96769;-81
2021/04/21 03:36:59;;;;;;;;;;;;;;;13.07;42.60;101003.09;4953180;28;96784;-82
2021/04/21 03:39:25;;;;;;;;;;;;;;;13.15;42.56;101003.69;4952552;28;98953;-82
2021/04/21 03:41:51;;;;;;;;;;;;;;;13.31;42.08;100995.09;4958090;28;98850;-80
2021/04/21 03:44:17;;;;;;;;;;;;;;;13.36;41.84;100996.63;4956046;28;98474;-81
2021/04/21 03:46:43;;;;;;;;;;;;;;;13.12;42.25;101002.94;4958777;28;96977;-81
2021/04/21 03:49:10;;;;;;;;;;;;;;;13.37;41.66;101002.78;4957654;28;98931;-81
2021/04/21 03:51:37;;;;;;;;;;;;;;;13.32;41.59;100995.03;4957287;28;99168;-82
2021/04/21 03:54:04;;;;;;;;;;;;;;;13.23;41.86;100999.84;4957408;28;96895;-82
2021/04/21 03:56:30;;;;;;;;;;;;;;;13.16;41.75;100997.47;4957591;28;97351;-81
2021/04/21 03:58:57;;;;;;;;;;;;;;;12.81;42.25;100994.50;4956954;28;99394;-83
2021/04/21 04:01:24;;;;;;;;;;;;;;;12.90;42.00;100997.66;4964515;23;98463;-82
2021/04/21 04:03:53;;;;;;;;;;;;;;;12.91;41.81;101006.47;4924635;28;96707;-81
2021/04/21 04:06:21;;;;;;;;;;;;;;;13.10;41.56;101005.66;4914568;28;96745;-82
2021/04/21 04:08:47;;;;;;;;;;;;;;;13.21;41.04;101007.88;4931688;28;100510;-81
2021/04/21 04:11:15;;;;;;;;;;;;;;;13.05;41.36;101012.94;4934076;28;97703;-80
2021/04/21 04:13:42;;;;;;;;;;;;;;;12.98;41.11;101006.16;4928348;28;96808;-81
2021/04/21 04:16:10;;;;;;;;;;;;;;;12.73;41.52;101008.94;4938683;28;98605;-81
2021/04/21 04:18:37;;;;;;;;;;;;;;;12.83;41.48;101011.22;4929834;28;98783;-82
2021/04/21 04:21:05;;;;;;;;;;;;;;;13.10;40.76;101008.31;4934059;28;97779;-82
2021/04/21 04:23:32;;;;;;;;;;;;;;;13.08;40.70;101003.97;4931488;28;96639;-82
2021/04/21 04:25:58;;;;;;;;;;;;;;;12.91;40.83;101004.69;4922568;28;96931;-81
2021/04/21 04:28:27;;;;;;;;;;;;;;;12.78;41.22;101008.75;4933230;28;99290;-80
2021/04/21 04:30:54;;;;;;;;;;;;;;;12.83;40.91;101012.09;4931663;28;100754;-82
2021/04/21 04:33:22;;;;;;;;;;;;;;;12.85;40.89;101007.59;4933000;28;96926;-83
2021/04/21 04:35:49;;;;;;;;;;;;;;;13.06;40.42;101009.34;4922091;28;96887;-83
2021/04/21 04:38:15;;;;;;;;;;;;;;;13.19;40.27;101008.88;4927941;28;98224;-82
2021/04/21 04:40:41;;;;;;;;;;;;;;;13.52;39.71;101018.06;4918541;28;98769;-81
2021/04/21 04:43:08;;;;;;;;;;;;;;;13.46;39.63;101015.66;4908914;28;97116;-80
2021/04/21 04:45:37;;;;;;;;;;;;;;;13.72;39.20;101014.53;4920234;28;96946;-81
2021/04/21 04:48:04;;;;;;;;;;;;;;;13.72;38.98;101026.00;4923927;28;99447;-82
2021/04/21 04:50:31;;;;;;;;;;;;;;;13.36;39.69;101017.00;4924341;28;101837;-81
2021/04/21 04:52:57;;;;;;;;;;;;;;;13.54;39.21;101026.81;4927990;28;97056;-82
2021/04/21 04:55:24;;;;;;;;;;;;;;;13.96;38.44;101016.09;4924568;28;96851;-82
2021/04/21 04:57:51;;;;;;;;;;;;;;;14.00;38.20;101024.78;4916918;28;98940;-82
2021/04/21 05:00:18;;;;;;;;;;;;;;;14.16;37.62;101024.03;4916835;28;98842;-81
2021/04/21 05:02:49;;;;;;;;;;;;;;;14.23;37.65;101012.19;4917956;28;96766;-81
2021/04/21 05:05:15;;;;;;;;;;;;;;;14.35;37.32;101014.25;4917155;28;97218;-82
2021/04/21 05:07:43;;;;;;;;;;;;;;;14.52;36.95;101023.25;4918238;28;97849;-82
2021/04/21 05:10:11;;;;;;;;;;;;;;;14.57;37.03;101018.63;4919629;28;99180;-81
2021/04/21 05:12:38;;;;;;;;;;;;;;;14.49;36.91;101023.41;4939845;28;96763;-81
2021/04/21 05:15:04;;;;;;;;;;;;;;;14.54;36.83;101019.59;4935651;28;96451;-81
2021/04/21 05:18:04;;;;;;;;;;;;;;;14.29;37.17;101021.66;4938737;28;97132;-82
2021/04/21 05:20:53;;;;;;;;;;;;;;;13.78;38.25;101017.78;4929896;28;98991;-82
2021/04/21 05:23:40;;;;;;;;;;;;;;;14.68;36.72;101021.59;4914835;28;98832;-81
2021/04/21 05:26:24;;;;;;;;;;;;;;;14.73;36.74;101022.25;4920260;28;96789;-81
2021/04/21 05:29:13;;;;;;;;;;;;;;;14.71;36.78;101024.09;4912404;28;98089;-82
2021/04/21 05:31:54;;;;;;;;;;;;;;;14.91;36.24;101020.47;4917457;28;98919;-81
2021/04/21 05:34:39;;;;;;;;;;;;;;;15.22;35.63;101023.38;4911438;28;96999;-81
2021/04/21 05:37:22;;;;;;;;;;;;;;;14.41;37.57;101025.56;4919903;28;96979;-81
2021/04/21 05:40:11;;;;;;;;;;;;;;;14.93;36.38;101019.47;4917319;28;98428;-81
2021/04/21 05:42:55;;;;;;;;;;;;;;;15.09;36.08;101019.59;4914439;28;98874;-82
2021/04/21 05:45:35;;;;;;;;;;;;;;;15.09;35.86;101020.47;4922188;28;97270;-83
2021/04/21 05:48:18;;;;;;;;;;;;;;;15.03;35.76;101018.06;4920322;28;96715;-84
2021/04/21 05:51:11;;;;;;;;;;;;;;;14.66;36.44;101019.00;4928547;28;101699;-82
2021/04/21 05:53:56;;;;;;;;;;;;;;;15.43;35.77;101024.06;4918280;28;99182;-81
2021/04/21 05:56:38;;;;;;;;;;;;;;;15.44;35.01;101026.66;4916392;28;96765;-81
2021/04/21 05:59:13;;;;;;;;;;;;;;;15.26;35.44;101018.75;4925986;28;96840;-81
2021/04/21 06:01:40;;;;;;;;;;;;;;;15.68;34.76;101029.03;4923165;28;98658;-82
2021/04/21 06:04:06;;;;;;;;;;;;;;;16.02;34.16;101028.94;4922304;28;98837;-82
2021/04/21 06:06:32;;;;;;;;;;;;;;;16.12;33.79;101026.66;4919430;28;96782;-82
2021/04/21 06:09:05;;;;;;;;;;;;;;;15.55;34.33;101036.81;4920145;28;96798;-81
2021/04/21 06:11:32;;;;;;;;;;;;;;;15.60;34.22;101028.56;4918203;28;101806;-82
2021/04/21 06:13:59;;;;;;;;;;;;;;;15.71;33.72;101032.38;4917385;28;98183;-82
2021/04/21 06:16:25;;;;;;;;;;;;;;;15.75;33.65;101033.09;4918595;28;96760;-83
2021/04/21 06:18:55;;;;;;;;;;;;;;;15.71;33.69;101035.06;4917884;28;97705;-82
2021/04/21 06:21:22;;;;;;;;;;;;;;;16.09;32.75;101033.00;4922312;28;97492;-82
2021/04/21 06:23:48;;;;;;;;;;;;;;;16.41;32.31;101033.09;4918589;28;99191;-83
2021/04/21 06:26:18;;;;;;;;;;;;;;;17.11;31.18;101030.84;4920956;28;96795;-81
2021/04/21 06:28:56;;;;;;;;;;;;;;;17.36;30.60;101042.78;4917679;28;96817;-82
2021/04/21 06:31:30;;;;;;;;;;;;;;;17.24;30.75;101035.47;4921982;28;97789;-87
2021/04/21 06:33:58;;;;;;;;;;;;;;;16.61;31.68;101038.19;4924930;28;96887;-84
2021/04/21 06:36:30;;;;;;;;;;;;;;;16.55;31.80;101033.16;4931780;28;96940;-81
2021/04/21 06:38:56;;;;;;;;;;;;;;;16.39;32.32;101038.50;4929763;28;97360;-83
2021/04/21 06:41:24;;;;;;;;;;;;;;;16.33;32.14;101034.38;4924999;28;99501;-83
2021/04/21 06:43:55;;;;;;;;;;;;;;;16.30;32.48;101042.53;4944239;28;97890;-83
2021/04/21 06:46:21;;;;;;;;;;;;;;;16.95;31.04;101034.47;4926857;28;97142;-83
2021/04/21 06:48:52;;;;;;;;;;;;;;;16.70;31.42;101035.88;4918986;28;96962;-82
2021/04/21 06:51:23;;;;;;;;;;;;;;;16.87;30.92;101037.59;4923933;28;100784;-82
2021/04/21 06:53:51;;;;;;;;;;;;;;;16.81;30.89;101035.25;4920777;28;99554;-83
2021/04/21 06:56:18;;;;;;;;;;;;;;;17.21;30.10;101036.50;4924484;28;96984;-83
2021/04/21 06:58:44;;;;;;;;;;;;;;;17.26;29.96;101039.78;4929630;28;97130;-82
2021/04/21 07:04:16;;;;;;;;;;;;;;;17.11;30.32;101038.88;4890627;28;97175;-83
2021/04/21 07:06:43;;;;;;;;;;;;;;;17.38;29.90;101035.53;4886365;28;96850;-83
2021/04/21 07:09:13;;;;;;;;;;;;;;;18.76;28.01;101042.16;4887279;28;97279;-83
2021/04/21 07:11:45;;;;;;;;;;;;;;;21.47;24.40;101027.38;4887795;28;98306;-83
2021/04/21 07:14:11;;;;;;;;;;;;;;;20.19;25.59;101036.81;4888406;28;99126;-83
2021/04/21 07:16:41;;;;;;;;;;;;;;;19.62;26.21;101036.38;4893073;28;97169;-82
2021/04/21 07:19:10;;;;;;;;;;;;;;;18.94;26.43;101038.28;4891257;28;97336;-80
2021/04/21 07:21:40;;;;;;;;;;;;;;;18.66;27.10;101036.53;4887144;28;102493;-81
2021/04/21 07:26:50;;;;;;;;;;;;;;;19.19;26.55;101027.66;4888414;28;98355;-80
2021/04/21 07:29:20;;;;;;;;;;;;;;;20.44;24.89;101027.03;4894450;28;97119;-85
2021/04/21 07:34:45;;;;;;;;;;;;;;;20.28;24.52;101040.69;4899398;28;98641;-84
2021/04/21 07:37:11;;;;;;;;;;;;;;;20.02;24.40;101028.25;4899493;28;96868;-83
2021/04/21 07:39:38;;;;;;;;;;;;;;;20.22;24.79;101036.56;4902033;28;96362;-85
2021/04/21 07:42:05;;;;;;;;;;;;;;;20.23;24.56;101026.69;4896763;28;97909;-83
2021/04/21 07:44:33;;;;;;;;;;;;;;;20.45;23.65;101029.59;4896991;28;101335;-83
2021/04/21 07:47:19;;;;;;;;;;;;;;;21.17;22.84;101030.56;4885247;28;97190;-85
2021/04/21 07:49:53;;;;;;;;;;;;;;;20.63;23.80;101025.59;4884149;28;97214;-83
2021/04/21 07:52:26;;;;;;;;;;;;;;;20.44;23.56;101029.72;4891813;28;99235;-81
2021/04/21 07:55:04;;;;;;;;;;;;;;;19.61;24.47;101025.75;4880685;28;99028;-80
2021/04/21 07:57:31;;;;;;;;;;;;;;;20.20;23.74;101033.16;4878904;28;97147;-84
2021/04/21 07:59:57;;;;;;;;;;;;;;;20.26;23.87;101027.34;4888165;28;97071;-83
2021/04/21 08:02:29;;;;;;;;;;;;;;;20.51;23.60;101026.47;4892225;28;98479;-83
2021/04/21 08:04:57;;;;;;;;;;;;;;;20.54;23.30;101023.59;4900353;28;99593;-79
2021/04/21 08:07:31;;;;;;;;;;;;;;;20.51;23.52;101026.47;4908042;28;96825;-83
2021/04/21 08:09:59;;;;;;;;;;;;;;;20.69;23.56;101030.50;4907921;28;96598;-83
2021/04/21 08:12:26;;;;;;;;;;;;;;;20.94;22.60;101017.94;4902228;28;101082;-84
2021/04/21 08:14:58;;;;;;;;;;;;;;;20.63;22.82;101030.09;4903176;28;98847;-83
2021/04/21 08:17:23;;;;;;;;;;;;;;;19.95;23.19;101030.50;4897606;28;96858;-84
2021/04/21 08:19:53;;;;;;;;;;;;;;;20.94;22.29;101021.50;4905069;28;96848;-84
2021/04/21 08:22:23;;;;;;;;;;;;;;;20.79;22.27;101014.59;4906896;28;99064;-84
2021/04/21 08:24:48;;;;;;;;;;;;;;;20.14;23.18;101024.69;4901216;28;101390;-84
2021/04/21 08:27:16;;;;;;;;;;;;;;;20.42;23.01;101027.13;4900565;28;97027;-84
2021/04/21 08:29:43;;;;;;;;;;;;;;;20.63;22.84;101022.91;4903644;28;97282;-84
2021/04/21 08:32:09;;;;;;;;;;;;;;;21.35;21.92;101022.94;4903939;28;99300;-83
2021/04/21 08:34:35;;;;;;;;;;;;;;;21.38;21.54;101028.09;4900282;28;98153;-84
2021/04/21 08:37:01;;;;;;;;;;;;;;;20.92;22.14;101022.59;4904985;28;97032;-83
2021/04/21 08:39:28;;;;;;;;;;;;;;;20.59;22.20;101033.97;4903973;28;97460;-82
2021/04/21 08:41:57;;;;;;;;;;;;;;;20.56;22.47;101027.00;4908028;28;99972;-84
2021/04/21 08:44:25;;;;;;;;;;;;;;;20.44;22.28;101035.09;4904959;28;98854;-86
2021/04/21 08:46:51;;;;;;;;;;;;;;;19.79;23.39;101021.78;4911870;28;97170;-86
2021/04/21 08:49:17;;;;;;;;;;;;;;;19.58;24.00;101028.63;4909835;28;97539;-86
2021/04/21 08:51:44;;;;;;;;;;;;;;;20.19;23.27;101026.06;4910456;28;98069;-86
2021/04/21 08:54:12;;;;;;;;;;;;;;;20.37;23.28;101029.28;4901841;28;97895;-83
2021/04/21 08:56:40;;;;;;;;;;;;;;;20.18;23.84;101037.78;4908147;28;99382;-82
2021/04/21 08:59:11;;;;;;;;;;;;;;;18.76;25.50;101034.13;4914124;28;97232;-85
2021/04/21 09:01:37;;;;;;;;;;;;;;;19.20;25.23;101029.38;4910337;28;99432;-83
2021/04/21 09:04:03;;;;;;;;;;;;;;;20.12;24.54;101032.84;4933558;28;99172;-82
2021/04/21 09:06:30;;;;;;;;;;;;;;;20.25;24.36;101022.09;4939186;28;95973;-84
2021/04/21 09:08:58;;;;;;;;;;;;;;;20.38;24.15;101022.09;4939930;28;96050;-83
2021/04/21 09:11:24;;;;;;;;;;;;;;;20.87;23.46;101022.09;4938183;28;99352;-83
2021/04/21 09:13:51;;;;;;;;;;;;;;;21.32;23.22;101024.03;4919720;28;97750;-82
2021/04/21 09:16:27;;;;;;;;;;;;;;;21.42;23.41;101016.13;4921364;28;97576;-82
2021/04/21 09:18:53;;;;;;;;;;;;;;;21.42;23.28;101016.97;4923817;28;96956;-81
2021/04/21 09:21:20;;;;;;;;;;;;;;;21.60;23.46;101011.16;4921162;28;99313;-80
2021/04/21 09:23:46;;;;;;;;;;;;;;;20.82;23.49;101016.16;4920946;28;98144;-81
2021/04/21 09:26:14;;;;;;;;;;;;;;;20.43;24.12;101025.31;4919277;28;96947;-83
2021/04/21 09:28:41;;;;;;;;;;;;;;;20.70;24.31;101017.94;4910507;28;96952;-83
2021/04/21 09:31:12;;;;;;;;;;;;;;;20.43;24.36;101011.88;4921335;28;98937;-83
2021/04/21 09:33:38;;;;;;;;;;;;;;;20.12;24.47;101013.19;4917865;28;97992;-81
2021/04/21 09:36:04;;;;;;;;;;;;;;;19.84;25.19;101016.97;4914458;28;97233;-80
2021/04/21 09:38:30;;;;;;;;;;;;;;;20.92;23.72;101010.03;4919980;28;97418;-80
2021/04/21 09:40:58;;;;;;;;;;;;;;;20.93;23.45;101008.19;4913464;28;98374;-80
2021/04/21 09:43:25;;;;;;;;;;;;;;;20.90;23.84;101000.34;4916478;28;98852;-83
2021/04/21 09:45:52;;;;;;;;;;;;;;;20.59;24.02;101009.81;4917140;28;97470;-80
2021/04/21 09:48:19;;;;;;;;;;;;;;;20.40;24.24;101014.81;4914085;28;97220;-81
2021/04/21 09:50:55;;;;;;;;;;;;;;;20.23;24.97;100994.50;4917819;28;102001;-83
2021/04/21 09:53:22;;;;;;;;;;;;;;;19.34;25.67;101002.50;4921075;28;98863;-84
2021/04/21 09:55:58;;;;;;;;;;;;;;;19.38;25.26;100995.97;4923382;28;96851;-81
2021/04/21 09:58:28;;;;;;;;;;;;;;;19.99;24.88;101007.84;4920431;28;97897;-83
2021/04/21 10:00:54;;;;;;;;;;;;;;;20.60;23.62;101001.66;4915800;28;98452;-82
2021/04/21 10:03:21;;;;;;;;;;;;;;;20.79;23.60;100998.47;4924387;28;101763;-83
2021/04/21 10:05:47;;;;;;;;;;;;;;;20.93;24.10;100990.25;4923528;28;96830;-82
2021/04/21 10:08:14;;;;;;;;;;;;;;;21.33;23.74;100989.97;4925850;28;96853;-82
2021/04/21 10:10:41;;;;;;;;;;;;;;;20.42;24.66;100991.38;4923111;28;97849;-83
2021/04/21 10:13:15;;;;;;;;;;;;;;;20.66;24.79;100987.78;4917216;28;98951;-82
2021/04/21 10:15:41;;;;;;;;;;;;;;;21.32;24.27;100989.09;4920029;28;97310;-80
2021/04/21 10:18:08;;;;;;;;;;;;;;;21.13;24.11;100982.53;4916634;28;96972;-80
2021/04/21 10:20:35;;;;;;;;;;;;;;;21.11;24.29;100989.84;4912427;28;97837;-81
2021/04/21 10:23:01;;;;;;;;;;;;;;;21.24;24.10;100991.50;4914316;28;100774;-82
2021/04/21 10:25:27;;;;;;;;;;;;;;;20.69;24.78;100986.69;4915020;28;96705;-80
2021/04/21 10:27:54;;;;;;;;;;;;;;;20.81;24.64;100976.84;4915939;28;96981;-80
2021/04/21 10:30:20;;;;;;;;;;;;;;;21.09;24.02;100985.44;4915430;28;99823;-81
2021/04/21 10:32:47;;;;;;;;;;;;;;;21.79;23.21;100977.31;4920324;28;98914;-79
2021/04/21 10:35:13;;;;;;;;;;;;;;;21.23;23.57;100975.50;4920941;28;96892;-81
2021/04/21 10:37:43;;;;;;;;;;;;;;;19.99;24.49;100983.72;4925346;28;97885;-80
2021/04/21 10:40:11;;;;;;;;;;;;;;;20.00;24.31;100980.06;4931560;28;98902;-80
2021/04/21 10:42:47;;;;;;;;;;;;;;;20.47;23.71;100981.19;4934692;28;97966;-83
2021/04/21 10:45:15;;;;;;;;;;;;;;;20.45;23.22;100972.38;4936115;28;96997;-85
2021/04/21 10:47:45;;;;;;;;;;;;;;;20.88;22.82;100970.91;4926684;28;96830;-81
2021/04/21 10:50:12;;;;;;;;;;;;;;;20.66;23.12;100978.88;4925170;28;97009;-82
2021/04/21 10:52:38;;;;;;;;;;;;;;;20.89;22.79;100977.16;4919031;28;99566;-81
2021/04/21 10:55:23;;;;;;;;;;;;;;;21.15;22.42;100975.19;4917921;28;97138;-81
2021/04/21 10:57:56;;;;;;;;;;;;;;;20.54;22.05;100967.22;4918557;28;96948;-82
2021/04/21 11:00:26;;;;;;;;;;;;;;;20.20;21.51;100968.78;4917699;28;101522;-83
2021/04/21 11:03:02;;;;;;;;;;;;;;;20.05;22.82;100979.72;4919119;28;98016;-82
2021/04/21 11:05:32;;;;;;;;;;;;;;;20.71;22.19;100974.00;4903026;28;97983;-83
2021/04/21 11:08:00;;;;;;;;;;;;;;;20.51;23.00;100966.56;4923454;28;96860;-82
2021/04/21 11:10:34;;;;;;;;;;;;;;;20.41;23.59;100963.72;4919764;28;100378;-84
2021/04/21 11:13:04;;;;;;;;;;;;;;;20.15;24.08;100965.53;4919730;28;100960;-81
2021/04/21 11:15:34;;;;;;;;;;;;;;;20.09;25.10;100971.34;4918367;28;96915;-84
2021/04/21 11:18:30;;;;;;;;;;;;;;;19.77;25.38;100970.94;4914763;28;96995;-84
2021/04/21 11:20:57;;;;;;;;;;;;;;;20.37;24.74;100969.38;4877858;28;100350;-83
2021/04/21 11:23:42;;;;;;;;;;;;;;;20.55;24.32;100965.34;4914086;28;101106;-83
2021/04/21 11:26:28;;;;;;;;;;;;;;;21.00;23.45;100964.63;4923014;28;96991;-81
2021/04/21 11:28:55;;;;;;;;;;;;;;;20.90;22.78;100966.28;4921009;28;97042;-84
2021/04/21 11:31:22;;;;;;;;;;;;;;;20.81;22.68;100977.72;4921312;28;99612;-84
2021/04/21 11:33:51;;;;;;;;;;;;;;;20.93;23.13;100974.13;4926982;28;99886;-83
2021/04/21 11:36:36;;;;;;;;;;;;;;;21.34;22.52;100975.53;4928959;28;96794;-83
2021/04/21 11:39:04;;;;;;;;;;;;;;;21.14;21.83;100976.16;4926793;28;97299;-82
2021/04/21 11:41:40;;;;;;;;;;;;;;;20.56;23.07;100965.25;4920869;28;99553;-82
2021/04/21 11:44:09;;;;;;;;;;;;;;;20.47;23.48;100971.31;4916257;28;99519;-82
2021/04/21 11:46:53;;;;;;;;;;;;;;;20.57;23.66;100961.59;4914794;28;97175;-83
2021/04/21 11:49:36;;;;;;;;;;;;;;;20.50;23.88;100965.72;4918952;28;96973;-81
2021/04/21 11:52:02;;;;;;;;;;;;;;;20.62;23.75;100955.88;4916599;28;99446;-81
2021/04/21 11:54:29;;;;;;;;;;;;;;;20.52;23.88;100965.59;4919505;28;98458;-83
2021/04/21 11:56:57;;;;;;;;;;;;;;;21.35;22.86;100958.44;4914757;28;96840;-83
2021/04/21 11:59:24;;;;;;;;;;;;;;;20.79;22.72;100950.13;4915176;28;96944;-81
2021/04/21 12:01:50;;;;;;;;;;;;;;;20.71;22.77;100955.22;4909264;28;99015;-81
2021/04/21 12:04:17;;;;;;;;;;;;;;;20.15;23.76;100954.81;4920100;28;98005;-83
2021/04/21 12:06:43;;;;;;;;;;;;;;;19.49;24.59;100953.25;4918784;28;97373;-81
2021/04/21 12:09:10;;;;;;;;;;;;;;;19.71;24.25;100957.09;4916923;28;97454;-83
2021/04/21 12:11:36;;;;;;;;;;;;;;;20.38;23.45;100945.13;4902763;28;98790;-81
2021/04/21 12:14:03;;;;;;;;;;;;;;;20.61;23.38;100946.97;4916848;28;101265;-83
2021/04/21 12:16:33;;;;;;;;;;;;;;;21.01;22.00;100946.66;4918047;28;97602;-81
2021/04/21 12:19:00;;;;;;;;;;;;;;;20.85;21.25;100933.56;4921833;28;97362;-82
2021/04/21 12:21:27;;;;;;;;;;;;;;;20.97;21.00;100940.69;4925957;28;98183;-83
2021/04/21 12:23:55;;;;;;;;;;;;;;;21.29;20.78;100937.41;4929493;28;101641;-85
2021/04/21 12:26:22;;;;;;;;;;;;;;;21.70;20.83;100935.03;4931184;28;96795;-83
2021/04/21 12:28:49;;;;;;;;;;;;;;;21.79;20.37;100936.97;4929267;28;98313;-81
2021/04/21 12:31:15;;;;;;;;;;;;;;;21.78;20.51;100945.19;4921274;28;100545;-81
2021/04/21 12:33:42;;;;;;;;;;;;;;;21.02;19.96;100930.44;4922632;28;100571;-82
2021/04/21 12:36:08;;;;;;;;;;;;;;;21.55;19.99;100930.00;4923294;28;96983;-80
2021/04/21 12:38:35;;;;;;;;;;;;;;;21.38;20.09;100934.00;4921295;28;97204;-83
2021/04/21 12:41:03;;;;;;;;;;;;;;;21.25;20.35;100934.09;4919595;28;101536;-81
2021/04/21 12:43:30;;;;;;;;;;;;;;;21.31;20.45;100930.94;4921141;28;98196;-81
2021/04/21 12:46:14;;;;;;;;;;;;;;;21.34;20.97;100937.88;4917961;28;99851;-83
2021/04/21 12:48:48;;;;;;;;;;;;;;;21.74;21.28;100925.75;4914293;28;96887;-84
2021/04/21 12:51:22;;;;;;;;;;;;;;;21.17;22.33;100923.09;4919910;28;101563;-82
2021/04/21 12:53:49;;;;;;;;;;;;;;;21.63;21.47;100920.34;4918502;28;99360;-85
2021/04/21 12:56:15;;;;;;;;;;;;;;;21.38;21.93;100917.88;4923250;28;97600;-84